createdAt,value
2018-07-14T00:00:11.931Z,52.50
2018-07-14T00:02:40.975Z,52.50
2018-07-14T00:05:10.802Z,52.90
2018-07-14T00:07:40.789Z,53.20
2018-07-14T00:10:09.509Z,53.00
2018-07-14T00:12:39.549Z,53.00
2018-07-14T00:15:08.385Z,53.10
2018-07-14T00:17:37.213Z,53.10
2018-07-14T00:20:05.988Z,53.30
2018-07-14T00:22:34.777Z,53.80
2018-07-14T00:25:03.705Z,54.00
2018-07-14T00:27:32.485Z,54.40
2018-07-14T00:30:01.269Z,54.50
2018-07-14T00:32:30.141Z,54.80
2018-07-14T00:34:58.913Z,55.30
2018-07-14T00:37:27.639Z,56.00
2018-07-14T00:39:56.441Z,56.50
2018-07-14T00:42:25.191Z,56.30
2018-07-14T00:44:54.025Z,56.30
2018-07-14T00:47:22.810Z,56.20
2018-07-14T00:49:51.670Z,56.10
2018-07-14T00:52:20.440Z,56.00
2018-07-14T00:54:49.211Z,55.90
2018-07-14T00:57:17.934Z,56.10
2018-07-14T00:59:46.659Z,56.20
2018-07-14T01:02:15.456Z,56.30
2018-07-14T01:04:44.143Z,56.40
2018-07-14T01:07:12.901Z,56.50
2018-07-14T01:09:42.747Z,56.80
2018-07-14T01:12:11.518Z,56.80
2018-07-14T01:14:40.288Z,57.10
2018-07-14T01:17:09.011Z,57.40
2018-07-14T01:19:37.823Z,57.60
2018-07-14T01:22:06.702Z,57.60
2018-07-14T01:24:35.447Z,57.50
2018-07-14T01:27:05.449Z,58.90
2018-07-14T01:29:34.195Z,60.30
2018-07-14T01:32:02.907Z,60.20
2018-07-14T01:34:32.470Z,60.10
2018-07-14T01:37:01.266Z,60.10
2018-07-14T01:39:30.020Z,60.10
2018-07-14T01:41:58.774Z,59.80
2018-07-14T01:44:27.481Z,59.60
2018-07-14T01:46:56.199Z,59.60
2018-07-14T01:49:24.949Z,59.60
2018-07-14T01:51:53.772Z,59.70
2018-07-14T01:54:22.504Z,59.50
2018-07-14T01:56:51.243Z,59.80
2018-07-14T01:59:20.992Z,59.80
2018-07-14T02:01:49.750Z,59.80
2018-07-14T02:04:18.521Z,59.80
2018-07-14T02:06:47.265Z,59.80
2018-07-14T02:09:16.026Z,59.40
2018-07-14T02:11:44.763Z,59.40
2018-07-14T02:14:13.461Z,59.40
2018-07-14T02:16:42.206Z,59.60
2018-07-14T02:19:10.909Z,59.60
2018-07-14T02:21:39.707Z,59.50
2018-07-14T02:24:08.479Z,59.60
2018-07-14T02:26:37.233Z,59.70
2018-07-14T02:29:06.186Z,59.70
2018-07-14T02:31:36.353Z,59.50
2018-07-14T02:34:06.261Z,59.30
2018-07-14T02:36:35.026Z,59.30
2018-07-14T02:39:04.683Z,59.20
2018-07-14T02:41:33.431Z,59.10
2018-07-14T02:44:02.341Z,58.90
2018-07-14T02:46:31.150Z,59.10
2018-07-14T02:48:59.932Z,59.20
2018-07-14T02:51:28.795Z,59.10
2018-07-14T02:53:57.609Z,58.80
2018-07-14T02:56:26.532Z,58.60
2018-07-14T02:58:56.345Z,58.60
2018-07-14T03:01:25.127Z,58.40
2018-07-14T03:03:54.599Z,58.20
2018-07-14T03:06:23.461Z,58.40
2018-07-14T03:08:52.232Z,58.50
2018-07-14T03:11:20.948Z,57.30
2018-07-14T03:13:49.786Z,55.70
2018-07-14T03:16:18.520Z,53.90
2018-07-14T03:18:47.361Z,52.00
2018-07-14T03:21:16.129Z,50.70
2018-07-14T03:23:46.152Z,48.40
2018-07-14T03:26:14.948Z,46.70
2018-07-14T03:28:43.722Z,44.90
2018-07-14T03:31:12.439Z,43.40
2018-07-14T03:33:41.225Z,42.00
2018-07-14T03:36:09.961Z,40.90
2018-07-14T03:38:38.726Z,39.90
2018-07-14T03:41:07.621Z,38.90
2018-07-14T03:43:36.337Z,38.00
2018-07-14T03:46:05.371Z,37.50
2018-07-14T03:48:34.093Z,37.00
2018-07-14T03:51:04.152Z,36.40
2018-07-14T03:53:32.956Z,37.70
2018-07-14T03:56:01.729Z,38.70
2018-07-14T03:58:30.481Z,39.20
2018-07-14T04:00:59.328Z,39.10
2018-07-14T04:03:28.079Z,38.70
2018-07-14T04:05:56.882Z,38.10
2018-07-14T04:08:25.656Z,37.90
2018-07-14T04:10:54.426Z,37.40
2018-07-14T04:13:23.394Z,36.40
2018-07-14T04:15:53.485Z,36.40
2018-07-14T04:18:22.248Z,35.90
2018-07-14T04:20:51.021Z,35.30
2018-07-14T04:23:19.746Z,34.40
2018-07-14T04:25:48.640Z,33.10
2018-07-14T04:28:17.396Z,32.50
2018-07-14T04:30:46.149Z,32.00
2018-07-14T04:33:14.907Z,31.60
2018-07-14T04:35:43.671Z,31.10
2018-07-14T04:38:12.422Z,30.70
2018-07-14T04:40:41.194Z,30.60
2018-07-14T04:43:10.155Z,31.00
2018-07-14T04:45:38.901Z,31.80
2018-07-14T04:48:08.866Z,32.50
2018-07-14T04:50:37.722Z,33.30
2018-07-14T04:53:06.435Z,34.40
2018-07-14T04:55:35.234Z,35.30
2018-07-14T04:58:04.022Z,36.30
2018-07-14T05:00:32.755Z,37.50
2018-07-14T05:03:01.566Z,38.30
2018-07-14T05:05:31.655Z,39.00
2018-07-14T05:08:00.428Z,40.20
2018-07-14T05:10:29.159Z,40.60
2018-07-14T05:12:57.925Z,41.20
2018-07-14T05:15:26.788Z,41.80
2018-07-14T05:17:55.582Z,43.00
2018-07-14T05:20:24.329Z,42.90
2018-07-14T05:22:54.117Z,43.30
2018-07-14T05:25:22.867Z,43.80
2018-07-14T05:27:51.651Z,44.00
2018-07-14T05:30:20.479Z,44.00
2018-07-14T05:32:49.212Z,44.70
2018-07-14T05:35:17.999Z,45.80
2018-07-14T05:37:46.749Z,46.40
2018-07-14T05:40:16.165Z,46.80
2018-07-14T05:42:45.653Z,47.40
2018-07-14T05:45:14.374Z,47.30
2018-07-14T05:47:43.475Z,47.20
2018-07-14T05:50:12.331Z,47.30
2018-07-14T05:52:41.159Z,46.90
2018-07-14T05:55:10.931Z,46.40
2018-07-14T05:57:39.699Z,46.00
2018-07-14T06:00:09.218Z,45.20
2018-07-14T06:02:38.060Z,44.60
2018-07-14T06:05:06.966Z,44.40
2018-07-14T06:07:35.797Z,44.30
2018-07-14T06:10:04.606Z,43.90
2018-07-14T06:12:33.409Z,43.90
2018-07-14T06:15:02.154Z,43.70
2018-07-14T06:17:31.042Z,44.00
2018-07-14T06:19:59.842Z,43.00
2018-07-14T06:22:28.582Z,42.20
2018-07-14T06:24:58.675Z,41.90
2018-07-14T06:27:27.488Z,41.40
2018-07-14T06:29:57.671Z,41.80
2018-07-14T06:32:26.527Z,39.40
2018-07-14T06:34:55.305Z,38.50
2018-07-14T06:37:24.076Z,38.80
2018-07-14T06:39:52.827Z,39.00
2018-07-14T06:42:22.281Z,39.10
2018-07-14T06:44:51.151Z,39.10
2018-07-14T06:47:19.971Z,39.20
2018-07-14T06:49:48.756Z,39.10
2018-07-14T06:52:17.618Z,39.40
2018-07-14T06:54:46.392Z,39.70
2018-07-14T06:57:15.194Z,40.20
2018-07-14T06:59:43.962Z,40.10
2018-07-14T07:02:12.735Z,40.70
2018-07-14T07:04:41.552Z,40.80
2018-07-14T07:07:11.624Z,41.30
2018-07-14T07:09:40.368Z,41.30
2018-07-14T07:12:09.256Z,40.70
2018-07-14T07:14:38.033Z,39.50
2018-07-14T07:17:06.822Z,39.50
2018-07-14T07:19:35.612Z,38.70
2018-07-14T07:22:04.458Z,39.70
2018-07-14T07:24:33.220Z,39.20
2018-07-14T07:27:02.066Z,39.70
2018-07-14T07:31:00.296Z,37.80
2018-07-14T07:33:29.039Z,38.50
2018-07-14T07:35:57.840Z,39.70
2018-07-14T07:38:26.922Z,40.00
2018-07-14T07:40:56.716Z,40.50
2018-07-14T07:43:25.480Z,41.10
2018-07-14T07:45:54.328Z,40.60
2018-07-14T07:48:23.967Z,39.80
2018-07-14T07:50:53.561Z,39.40
2018-07-14T07:53:22.298Z,39.70
2018-07-14T07:55:51.017Z,38.80
2018-07-14T07:58:19.705Z,38.80
2018-07-14T08:00:48.534Z,36.60
2018-07-14T08:03:17.468Z,36.20
2018-07-14T08:05:46.377Z,35.10
2018-07-14T08:08:16.355Z,35.10
2018-07-14T08:10:45.537Z,33.70
2018-07-14T08:13:14.300Z,33.50
2018-07-14T08:15:43.065Z,32.60
2018-07-14T08:18:11.819Z,33.30
2018-07-14T08:20:40.562Z,32.50
2018-07-14T08:23:09.360Z,32.80
2018-07-14T08:25:38.227Z,31.80
2018-07-14T08:28:06.943Z,32.20
2018-07-14T08:30:35.753Z,32.10
2018-07-14T08:33:04.565Z,32.20
2018-07-14T08:35:33.364Z,32.10
2018-07-14T08:38:02.245Z,32.50
2018-07-14T08:40:31.729Z,33.10
2018-07-14T08:43:01.208Z,31.90
2018-07-14T08:45:30.727Z,34.00
2018-07-14T08:47:59.466Z,32.80
2018-07-14T08:50:29.339Z,31.90
2018-07-14T08:52:58.106Z,32.50
2018-07-14T08:55:26.838Z,34.10
2018-07-14T08:57:55.696Z,34.30
2018-07-14T09:00:24.443Z,32.80
2018-07-14T09:02:53.183Z,34.30
2018-07-14T09:05:21.923Z,34.20
2018-07-14T09:07:50.666Z,34.30
2018-07-14T09:10:19.478Z,33.90
2018-07-14T09:12:48.337Z,34.00
2018-07-14T09:15:17.069Z,33.40
2018-07-14T09:17:47.051Z,33.90
2018-07-14T09:20:15.767Z,35.60
2018-07-14T09:22:44.538Z,34.60
2018-07-14T09:25:13.300Z,33.00
2018-07-14T09:27:42.203Z,33.70
2018-07-14T09:30:11.056Z,34.30
2018-07-14T09:32:39.994Z,34.50
2018-07-14T09:35:08.864Z,37.00
2018-07-14T09:37:37.593Z,36.70
2018-07-14T09:40:06.551Z,37.10
2018-07-14T09:42:35.428Z,37.80
2018-07-14T09:45:04.300Z,37.60
2018-07-14T09:47:33.163Z,37.60
2018-07-14T09:50:01.927Z,37.30
2018-07-14T09:52:30.659Z,39.20
2018-07-14T09:54:59.524Z,39.90
2018-07-14T10:00:35.291Z,39.70
2018-07-14T10:03:04.814Z,39.90
2018-07-14T10:05:33.664Z,39.70
2018-07-14T10:08:02.452Z,39.70
2018-07-14T10:10:31.192Z,39.80
2018-07-14T10:13:00.028Z,39.80
2018-07-14T10:15:28.883Z,40.00
2018-07-14T10:17:57.627Z,40.20
2018-07-14T10:20:26.387Z,40.00
2018-07-14T10:22:55.154Z,40.60
2018-07-14T10:25:24.146Z,40.80
2018-07-14T10:27:52.826Z,40.50
2018-07-14T10:30:21.570Z,39.90
2018-07-14T10:32:50.394Z,39.70
2018-07-14T10:35:19.228Z,38.90
2018-07-14T10:37:47.952Z,38.00
2018-07-14T10:40:16.694Z,35.40
2018-07-14T10:42:45.729Z,33.50
2018-07-14T10:45:14.859Z,33.90
2018-07-14T10:47:43.660Z,32.70
2018-07-14T10:50:12.526Z,32.50
2018-07-14T10:52:41.434Z,32.30
2018-07-14T10:55:10.308Z,31.90
2018-07-14T10:57:39.262Z,30.60
2018-07-14T11:00:08.724Z,30.80
2018-07-14T11:02:39.430Z,29.60
2018-07-14T11:05:08.513Z,29.90
2018-07-14T11:07:37.304Z,29.30
2018-07-14T11:10:06.263Z,29.30
2018-07-14T11:12:36.295Z,29.30
2018-07-14T11:15:05.133Z,28.20
2018-07-14T11:17:33.918Z,28.40
2018-07-14T11:20:02.666Z,29.00
2018-07-14T11:22:31.483Z,28.50
2018-07-14T11:25:00.288Z,28.50
2018-07-14T11:27:29.154Z,28.10
2018-07-14T11:29:58.901Z,27.90
2018-07-14T11:32:28.430Z,28.30
2018-07-14T11:34:57.284Z,28.20
2018-07-14T11:37:26.183Z,28.00
2018-07-14T11:39:54.957Z,27.70
2018-07-14T11:42:25.072Z,28.00
2018-07-14T11:44:53.828Z,28.30
2018-07-14T11:47:22.677Z,27.90
2018-07-14T11:49:51.441Z,27.80
2018-07-14T11:52:21.456Z,28.00
2018-07-14T11:54:51.514Z,28.50
2018-07-14T11:57:20.357Z,27.90
2018-07-14T11:59:49.241Z,28.10
2018-07-14T12:02:17.980Z,28.30
2018-07-14T12:04:48.013Z,27.90
2018-07-14T12:07:16.752Z,28.10
2018-07-14T12:09:47.016Z,27.90
2018-07-14T12:12:17.668Z,27.40
2018-07-14T12:14:47.789Z,27.50
2018-07-14T12:17:17.448Z,27.80
2018-07-14T12:19:47.206Z,28.00
2018-07-14T12:24:46.651Z,27.60
2018-07-14T12:27:16.646Z,27.80
2018-07-14T12:29:46.816Z,28.30
2018-07-14T12:32:16.801Z,28.80
2018-07-14T12:34:47.175Z,28.20
2018-07-14T12:37:17.195Z,27.90
2018-07-14T12:39:47.007Z,28.40
2018-07-14T12:42:17.074Z,27.50
2018-07-14T12:44:46.933Z,26.80
2018-07-14T12:47:16.841Z,27.00
2018-07-14T12:49:45.610Z,27.30
2018-07-14T12:52:15.292Z,27.40
2018-07-14T12:54:45.639Z,27.20
2018-07-14T12:57:15.698Z,27.40
2018-07-14T12:59:45.720Z,27.60
2018-07-14T13:02:15.520Z,27.80
2018-07-14T13:04:45.022Z,28.30
2018-07-14T13:07:14.585Z,28.30
2018-07-14T13:09:44.300Z,28.50
2018-07-14T13:12:14.887Z,28.60
2018-07-14T13:14:44.413Z,28.60
2018-07-14T13:17:14.262Z,29.00
2018-07-14T13:19:43.688Z,31.60
2018-07-14T13:22:13.705Z,33.00
2018-07-14T13:24:43.100Z,35.10
2018-07-14T13:27:13.033Z,37.20
2018-07-14T13:29:42.625Z,37.70
2018-07-14T13:32:12.458Z,37.70
2018-07-14T13:34:42.016Z,38.00
2018-07-14T13:37:11.941Z,34.70
2018-07-14T13:39:42.236Z,34.70
2018-07-14T13:42:12.297Z,34.80
2018-07-14T13:44:42.922Z,34.10
2018-07-14T13:47:12.743Z,33.10
2018-07-14T13:49:42.738Z,32.10
2018-07-14T13:52:12.575Z,32.30
2018-07-14T13:54:42.507Z,31.50
2018-07-14T13:57:12.460Z,32.00
2018-07-14T13:59:42.380Z,31.90
2018-07-14T14:02:12.291Z,31.90
2018-07-14T14:04:42.300Z,32.10
2018-07-14T14:07:12.086Z,32.20
2018-07-14T14:09:41.629Z,32.40
2018-07-14T14:12:11.653Z,32.70
2018-07-14T14:14:42.103Z,32.90
2018-07-14T14:17:11.959Z,33.60
2018-07-14T14:19:42.106Z,33.40
2018-07-14T14:22:12.663Z,33.00
2018-07-14T14:24:42.958Z,33.10
2018-07-14T14:27:14.126Z,33.10
2018-07-14T14:29:44.646Z,33.00
2018-07-14T14:32:14.644Z,33.20
2018-07-14T14:34:44.811Z,33.30
2018-07-14T14:37:14.544Z,33.30
2018-07-14T14:39:44.324Z,33.20
2018-07-14T14:42:13.163Z,32.60
2018-07-14T14:44:43.252Z,32.80
2018-07-14T14:47:13.346Z,33.00
2018-07-14T14:49:43.527Z,32.70
2018-07-14T14:52:13.178Z,33.30
2018-07-14T14:54:42.894Z,33.70
2018-07-14T14:57:12.881Z,33.60
2018-07-14T14:59:42.351Z,34.40
2018-07-14T15:02:11.873Z,34.20
2018-07-14T15:04:42.035Z,34.30
2018-07-14T15:07:12.344Z,33.40
2018-07-14T15:09:42.872Z,33.80
2018-07-14T15:12:12.777Z,33.30
2018-07-14T15:14:42.214Z,33.00
2018-07-14T15:17:12.835Z,32.40
2018-07-14T15:19:41.637Z,31.60
2018-07-14T15:22:11.456Z,31.40
2018-07-14T15:24:41.317Z,30.50
2018-07-14T15:30:56.519Z,30.50
2018-07-14T15:33:26.607Z,30.80
2018-07-14T15:35:55.303Z,30.40
2018-07-14T15:38:25.304Z,30.10
2018-07-14T15:40:55.829Z,31.00
2018-07-14T15:43:25.734Z,31.40
2018-07-14T15:45:56.976Z,31.30
2018-07-14T15:48:26.881Z,31.20
2018-07-14T15:50:57.219Z,30.60
2018-07-14T15:53:27.949Z,30.50
2018-07-14T15:55:56.716Z,30.60
2018-07-14T15:58:25.521Z,30.50
2018-07-14T16:00:55.741Z,30.30
2018-07-14T16:05:55.571Z,30.70
2018-07-14T16:08:24.965Z,30.80
2018-07-14T16:10:54.487Z,31.00
2018-07-14T16:13:23.975Z,30.40
2018-07-14T16:15:53.822Z,30.70
2018-07-14T16:18:22.627Z,30.60
2018-07-14T16:20:52.459Z,30.90
2018-07-14T16:23:21.947Z,31.00
2018-07-14T16:25:51.678Z,31.10
2018-07-14T16:28:21.296Z,30.20
2018-07-14T16:30:50.590Z,30.20
2018-07-14T16:33:19.718Z,30.50
2018-07-14T16:35:49.923Z,30.90
2018-07-14T16:38:19.094Z,31.00
2018-07-14T16:40:48.970Z,30.80
2018-07-14T16:43:19.502Z,30.00
2018-07-14T16:45:48.709Z,29.50
2018-07-14T16:48:18.069Z,28.70
2018-07-14T16:50:48.377Z,28.20
2018-07-14T16:53:17.580Z,28.50
2018-07-14T16:55:47.577Z,28.90
2018-07-14T16:58:17.298Z,29.00
2018-07-14T17:00:46.021Z,29.00
2018-07-14T17:03:14.734Z,29.30
2018-07-14T17:05:44.804Z,29.20
2018-07-14T17:08:13.628Z,29.60
2018-07-14T17:10:42.429Z,29.30
2018-07-14T17:13:11.155Z,29.50
2018-07-14T17:15:39.868Z,33.10
2018-07-14T17:18:08.814Z,35.40
2018-07-14T17:20:37.573Z,34.80
2018-07-14T17:23:06.383Z,35.30
2018-07-14T17:25:35.137Z,37.00
2018-07-14T17:28:05.106Z,36.50
2018-07-14T17:30:34.899Z,37.20
2018-07-14T17:33:03.760Z,37.40
2018-07-14T17:35:33.641Z,37.20
2018-07-14T17:38:02.405Z,36.40
2018-07-14T17:40:31.142Z,36.70
2018-07-14T17:43:00.025Z,36.10
2018-07-14T17:45:28.811Z,35.10
2018-07-14T17:47:58.541Z,33.60
2018-07-14T17:50:27.321Z,32.60
2018-07-14T17:52:56.767Z,32.40
2018-07-14T17:55:25.511Z,31.00
2018-07-14T17:57:54.408Z,30.20
2018-07-14T18:00:24.477Z,30.30
2018-07-14T18:02:53.964Z,31.60
2018-07-14T18:05:22.790Z,32.70
2018-07-14T18:07:52.972Z,32.20
2018-07-14T18:10:22.519Z,32.70
2018-07-14T18:12:51.348Z,32.30
2018-07-14T18:15:21.441Z,32.50
2018-07-14T18:17:50.243Z,32.60
2018-07-14T18:20:18.968Z,33.00
2018-07-14T18:22:47.736Z,32.70
2018-07-14T18:25:16.504Z,33.00
2018-07-14T18:27:46.207Z,33.40
2018-07-14T18:30:15.681Z,34.00
2018-07-14T18:32:46.251Z,34.70
2018-07-14T18:35:16.298Z,35.10
2018-07-14T18:37:45.066Z,35.00
2018-07-14T18:40:13.818Z,39.90
2018-07-14T18:42:42.657Z,40.70
2018-07-14T18:45:11.563Z,40.80
2018-07-14T18:47:40.317Z,40.70
2018-07-14T18:50:09.213Z,40.80
2018-07-14T18:55:38.222Z,41.50
2018-07-14T18:58:07.098Z,42.00
2018-07-14T19:00:36.738Z,42.10
2018-07-14T19:03:06.670Z,41.90
2018-07-14T19:05:35.465Z,42.00
2018-07-14T19:08:05.297Z,42.10
2018-07-14T19:10:34.064Z,42.20
2018-07-14T19:13:02.808Z,42.30
2018-07-14T19:15:32.559Z,41.90
2018-07-14T19:18:02.028Z,42.00
2018-07-14T19:20:31.136Z,42.20
2018-07-14T19:23:00.665Z,42.50
2018-07-14T19:25:30.224Z,42.80
2018-07-14T19:28:00.096Z,42.80
2018-07-14T19:30:28.857Z,43.00
2018-07-14T19:32:57.594Z,43.10
2018-07-14T19:35:26.586Z,43.50
2018-07-14T19:37:55.331Z,43.60
2018-07-14T19:40:24.036Z,43.60
2018-07-14T19:42:52.759Z,44.10
2018-07-14T19:45:21.530Z,44.40
2018-07-14T19:47:50.356Z,45.10
2018-07-14T19:50:19.321Z,44.80
2018-07-14T19:52:49.393Z,45.00
2018-07-14T19:55:18.846Z,44.90
2018-07-14T19:57:47.592Z,45.20
2018-07-14T20:00:16.291Z,45.50
2018-07-14T20:02:45.804Z,45.80
2018-07-14T20:05:15.846Z,45.80
2018-07-14T20:07:44.682Z,46.30
2018-07-14T20:12:43.756Z,46.80
2018-07-14T20:15:13.718Z,46.90
2018-07-14T20:17:43.328Z,47.00
2018-07-14T20:20:12.966Z,47.20
2018-07-14T20:22:41.711Z,47.70
2018-07-14T20:25:10.514Z,48.00
2018-07-14T20:27:39.387Z,48.10
2018-07-14T20:30:09.198Z,48.10
2018-07-14T20:32:37.945Z,48.20
2018-07-14T20:35:06.827Z,48.20
2018-07-14T20:37:36.798Z,48.50
2018-07-14T20:40:07.467Z,48.70
2018-07-14T20:42:37.677Z,48.40
2018-07-14T20:45:07.227Z,48.30
2018-07-14T20:47:37.092Z,48.60
2018-07-14T20:50:07.252Z,48.60
2018-07-14T20:52:36.002Z,48.50
2018-07-14T20:55:04.899Z,48.30
2018-07-14T20:57:33.747Z,48.20
2018-07-14T21:00:03.582Z,48.30
2018-07-14T21:02:32.415Z,48.50
2018-07-14T21:05:01.180Z,48.70
2018-07-14T21:07:30.061Z,48.80
2018-07-14T21:09:58.822Z,49.20
2018-07-14T21:12:27.737Z,49.50
2018-07-14T21:14:56.436Z,50.00
2018-07-14T21:17:25.229Z,50.70
2018-07-14T21:19:54.011Z,51.00
2018-07-14T21:22:22.753Z,51.20
2018-07-14T21:24:51.619Z,51.50
2018-07-14T21:27:21.577Z,51.70
2018-07-14T21:29:51.523Z,51.70
2018-07-14T21:32:21.351Z,51.50
2018-07-14T21:34:50.107Z,50.40
2018-07-14T21:37:18.834Z,49.00
2018-07-14T21:39:47.687Z,48.10
2018-07-14T21:42:17.090Z,47.90
2018-07-14T21:44:45.876Z,47.30
2018-07-14T21:47:14.598Z,46.60
2018-07-14T21:49:43.580Z,46.40
2018-07-14T21:52:12.352Z,46.30
2018-07-14T21:54:41.098Z,45.80
2018-07-14T21:57:09.870Z,45.60
2018-07-14T21:59:38.624Z,45.70
2018-07-14T22:02:07.615Z,46.00
2018-07-14T22:04:36.605Z,48.10
2018-07-14T22:07:06.316Z,48.70
2018-07-14T22:09:35.146Z,48.20
2018-07-14T22:14:33.710Z,47.70
2018-07-14T22:17:02.468Z,47.50
2018-07-14T22:19:32.576Z,47.30
2018-07-14T22:22:01.390Z,47.20
2018-07-14T22:24:30.126Z,47.00
2018-07-14T22:27:00.287Z,46.70
2018-07-14T22:29:29.307Z,46.70
2018-07-14T22:31:58.041Z,46.50
2018-07-14T22:34:27.591Z,46.50
2018-07-14T22:36:57.080Z,46.40
2018-07-14T22:39:27.041Z,46.30
2018-07-14T22:41:55.801Z,46.30
2018-07-14T22:44:24.575Z,46.20
2018-07-14T22:46:53.338Z,46.20
2018-07-14T22:49:22.040Z,46.10
2018-07-14T22:51:51.659Z,46.10
2018-07-14T22:54:20.398Z,46.30
2018-07-14T22:56:49.232Z,46.40
2018-07-14T22:59:19.368Z,46.60
2018-07-14T23:01:48.246Z,46.60
2018-07-14T23:04:17.046Z,46.80
2018-07-14T23:06:45.993Z,46.90
2018-07-14T23:09:15.761Z,47.00
2018-07-14T23:11:44.653Z,47.20
2018-07-14T23:14:13.479Z,47.40
2018-07-14T23:16:42.235Z,47.50
2018-07-14T23:19:12.125Z,47.80
2018-07-14T23:21:42.028Z,48.10
2018-07-14T23:24:11.631Z,48.20
2018-07-14T23:26:40.534Z,48.60
2018-07-14T23:29:09.265Z,49.10
2018-07-14T23:31:37.994Z,49.30
2018-07-14T23:34:07.557Z,49.60
2018-07-14T23:36:36.329Z,50.00
2018-07-14T23:39:06.733Z,50.30
2018-07-14T23:41:35.999Z,50.30
2018-07-14T23:44:04.826Z,50.30
2018-07-14T23:46:33.571Z,50.30
2018-07-14T23:49:02.322Z,50.40
2018-07-14T23:54:01.758Z,50.40
2018-07-14T23:56:30.512Z,51.50
2018-07-14T23:58:59.224Z,51.90
